sensor_id;sensor_type;location;lat;lon;timestamp;P1;durP1;ratioP1;P2;durP2;ratioP2
6031;SDS011;3044;43.232;27.972;2023-03-12T00:00:45;6.67;;;2.10;;
6031;SDS011;3044;43.232;27.972;2023-03-12T00:03:13;14.70;;;2.13;;
6031;SDS011;3044;43.232;27.972;2023-03-12T00:05:40;20.63;;;2.17;;
6031;SDS011;3044;43.232;27.972;2023-03-12T00:08:09;3.50;;;1.77;;
6031;SDS011;3044;43.232;27.972;2023-03-12T00:10:38;13.73;;;2.60;;
6031;SDS011;3044;43.232;27.972;2023-03-12T00:13:06;6.60;;;2.30;;
6031;SDS011;3044;43.232;27.972;2023-03-12T00:15:38;6.60;;;1.77;;
6031;SDS011;3044;43.232;27.972;2023-03-12T00:18:05;5.60;;;2.00;;
6031;SDS011;3044;43.232;27.972;2023-03-12T00:20:33;5.40;;;1.60;;
6031;SDS011;3044;43.232;27.972;2023-03-12T00:23:00;2.47;;;1.70;;
6031;SDS011;3044;43.232;27.972;2023-03-12T00:25:27;8.40;;;1.83;;
6031;SDS011;3044;43.232;27.972;2023-03-12T00:27:56;5.67;;;1.53;;
6031;SDS011;3044;43.232;27.972;2023-03-12T00:30:23;9.50;;;1.63;;
6031;SDS011;3044;43.232;27.972;2023-03-12T00:32:52;8.53;;;1.93;;
6031;SDS011;3044;43.232;27.972;2023-03-12T00:35:19;9.40;;;2.77;;
6031;SDS011;3044;43.232;27.972;2023-03-12T00:37:46;2.20;;;1.50;;
6031;SDS011;3044;43.232;27.972;2023-03-12T00:40:14;8.83;;;1.50;;
6031;SDS011;3044;43.232;27.972;2023-03-12T00:42:41;9.23;;;1.90;;
6031;SDS011;3044;43.232;27.972;2023-03-12T00:45:10;6.70;;;2.10;;
6031;SDS011;3044;43.232;27.972;2023-03-12T00:47:37;12.93;;;1.80;;
6031;SDS011;3044;43.232;27.972;2023-03-12T00:50:04;9.23;;;2.20;;
6031;SDS011;3044;43.232;27.972;2023-03-12T00:52:32;5.40;;;2.27;;
6031;SDS011;3044;43.232;27.972;2023-03-12T00:54:59;4.23;;;1.70;;
6031;SDS011;3044;43.232;27.972;2023-03-12T00:57:26;4.73;;;2.00;;
6031;SDS011;3044;43.232;27.972;2023-03-12T00:59:54;11.30;;;1.77;;
6031;SDS011;3044;43.232;27.972;2023-03-12T01:02:22;19.27;;;3.00;;
6031;SDS011;3044;43.232;27.972;2023-03-12T01:04:49;15.23;;;1.90;;
6031;SDS011;3044;43.232;27.972;2023-03-12T01:07:17;7.20;;;2.53;;
6031;SDS011;3044;43.232;27.972;2023-03-12T01:09:44;3.13;;;2.27;;
6031;SDS011;3044;43.232;27.972;2023-03-12T01:12:11;8.70;;;2.00;;
6031;SDS011;3044;43.232;27.972;2023-03-12T01:14:38;3.27;;;1.93;;
6031;SDS011;3044;43.232;27.972;2023-03-12T01:17:05;9.03;;;2.10;;
6031;SDS011;3044;43.232;27.972;2023-03-12T01:19:34;3.87;;;2.73;;
6031;SDS011;3044;43.232;27.972;2023-03-12T01:22:01;8.43;;;2.20;;
6031;SDS011;3044;43.232;27.972;2023-03-12T01:24:28;3.43;;;2.13;;
6031;SDS011;3044;43.232;27.972;2023-03-12T01:26:55;2.60;;;2.37;;
6031;SDS011;3044;43.232;27.972;2023-03-12T01:29:23;5.80;;;1.97;;
6031;SDS011;3044;43.232;27.972;2023-03-12T01:31:50;4.27;;;2.30;;
6031;SDS011;3044;43.232;27.972;2023-03-12T01:34:17;5.10;;;2.60;;
6031;SDS011;3044;43.232;27.972;2023-03-12T01:36:46;8.83;;;2.37;;
6031;SDS011;3044;43.232;27.972;2023-03-12T01:39:13;7.60;;;2.20;;
6031;SDS011;3044;43.232;27.972;2023-03-12T01:41:41;2.70;;;2.00;;
6031;SDS011;3044;43.232;27.972;2023-03-12T01:44:10;7.70;;;2.53;;
6031;SDS011;3044;43.232;27.972;2023-03-12T01:46:39;5.33;;;2.30;;
6031;SDS011;3044;43.232;27.972;2023-03-12T01:49:08;2.17;;;1.97;;
6031;SDS011;3044;43.232;27.972;2023-03-12T01:51:38;2.30;;;2.07;;
6031;SDS011;3044;43.232;27.972;2023-03-12T01:54:10;9.80;;;2.60;;
6031;SDS011;3044;43.232;27.972;2023-03-12T01:56:41;10.80;;;2.90;;
6031;SDS011;3044;43.232;27.972;2023-03-12T01:59:09;2.73;;;2.03;;
6031;SDS011;3044;43.232;27.972;2023-03-12T02:01:41;6.13;;;2.30;;
6031;SDS011;3044;43.232;27.972;2023-03-12T02:04:09;8.23;;;3.80;;
6031;SDS011;3044;43.232;27.972;2023-03-12T02:06:38;4.33;;;3.10;;
6031;SDS011;3044;43.232;27.972;2023-03-12T02:09:12;7.43;;;3.30;;
6031;SDS011;3044;43.232;27.972;2023-03-12T02:11:40;5.07;;;2.53;;
6031;SDS011;3044;43.232;27.972;2023-03-12T02:14:07;3.87;;;2.40;;
6031;SDS011;3044;43.232;27.972;2023-03-12T02:16:34;10.23;;;2.90;;
6031;SDS011;3044;43.232;27.972;2023-03-12T02:19:02;3.00;;;2.37;;
6031;SDS011;3044;43.232;27.972;2023-03-12T02:21:38;5.07;;;3.33;;
6031;SDS011;3044;43.232;27.972;2023-03-12T02:24:07;4.40;;;2.80;;
6031;SDS011;3044;43.232;27.972;2023-03-12T02:26:47;10.63;;;3.10;;
6031;SDS011;3044;43.232;27.972;2023-03-12T02:29:15;7.13;;;3.33;;
6031;SDS011;3044;43.232;27.972;2023-03-12T02:31:46;5.23;;;2.87;;
6031;SDS011;3044;43.232;27.972;2023-03-12T02:34:17;7.03;;;3.63;;
6031;SDS011;3044;43.232;27.972;2023-03-12T02:36:44;6.30;;;3.53;;
6031;SDS011;3044;43.232;27.972;2023-03-12T02:39:11;5.10;;;2.70;;
6031;SDS011;3044;43.232;27.972;2023-03-12T02:41:39;7.20;;;3.57;;
6031;SDS011;3044;43.232;27.972;2023-03-12T02:44:12;5.30;;;3.73;;
6031;SDS011;3044;43.232;27.972;2023-03-12T02:46:43;5.23;;;3.80;;
6031;SDS011;3044;43.232;27.972;2023-03-12T02:49:12;7.17;;;2.63;;
6031;SDS011;3044;43.232;27.972;2023-03-12T02:51:40;11.80;;;3.30;;
6031;SDS011;3044;43.232;27.972;2023-03-12T02:54:09;17.53;;;3.77;;
6031;SDS011;3044;43.232;27.972;2023-03-12T02:56:37;6.00;;;4.40;;
6031;SDS011;3044;43.232;27.972;2023-03-12T02:59:05;8.57;;;3.53;;
6031;SDS011;3044;43.232;27.972;2023-03-12T03:01:36;6.20;;;3.63;;
6031;SDS011;3044;43.232;27.972;2023-03-12T03:04:03;5.33;;;4.40;;
6031;SDS011;3044;43.232;27.972;2023-03-12T03:06:31;4.93;;;4.20;;
6031;SDS011;3044;43.232;27.972;2023-03-12T03:09:00;5.50;;;3.63;;
6031;SDS011;3044;43.232;27.972;2023-03-12T03:11:27;8.80;;;4.10;;
6031;SDS011;3044;43.232;27.972;2023-03-12T03:13:54;8.60;;;4.10;;
6031;SDS011;3044;43.232;27.972;2023-03-12T03:16:22;9.33;;;4.70;;
6031;SDS011;3044;43.232;27.972;2023-03-12T03:18:51;15.33;;;4.90;;
6031;SDS011;3044;43.232;27.972;2023-03-12T03:21:18;7.03;;;3.40;;
6031;SDS011;3044;43.232;27.972;2023-03-12T03:23:47;6.03;;;5.40;;
6031;SDS011;3044;43.232;27.972;2023-03-12T03:26:15;7.03;;;3.90;;
6031;SDS011;3044;43.232;27.972;2023-03-12T03:28:45;9.90;;;3.93;;
6031;SDS011;3044;43.232;27.972;2023-03-12T03:31:12;12.20;;;4.80;;
6031;SDS011;3044;43.232;27.972;2023-03-12T03:33:39;8.13;;;4.43;;
6031;SDS011;3044;43.232;27.972;2023-03-12T03:36:09;4.20;;;3.90;;
6031;SDS011;3044;43.232;27.972;2023-03-12T03:38:39;4.23;;;3.83;;
6031;SDS011;3044;43.232;27.972;2023-03-12T03:41:07;5.93;;;4.40;;
6031;SDS011;3044;43.232;27.972;2023-03-12T03:43:34;9.10;;;4.57;;
6031;SDS011;3044;43.232;27.972;2023-03-12T03:46:01;6.30;;;3.70;;
6031;SDS011;3044;43.232;27.972;2023-03-12T03:48:30;18.87;;;4.60;;
6031;SDS011;3044;43.232;27.972;2023-03-12T03:50:58;6.70;;;3.83;;
6031;SDS011;3044;43.232;27.972;2023-03-12T03:53:27;12.10;;;3.90;;
6031;SDS011;3044;43.232;27.972;2023-03-12T03:55:55;10.47;;;4.33;;
6031;SDS011;3044;43.232;27.972;2023-03-12T03:58:22;6.30;;;4.03;;
6031;SDS011;3044;43.232;27.972;2023-03-12T04:00:49;11.20;;;4.50;;
6031;SDS011;3044;43.232;27.972;2023-03-12T04:03:16;5.30;;;4.10;;
6031;SDS011;3044;43.232;27.972;2023-03-12T04:05:44;11.97;;;3.63;;
6031;SDS011;3044;43.232;27.972;2023-03-12T04:08:11;9.50;;;4.37;;
6031;SDS011;3044;43.232;27.972;2023-03-12T04:10:40;6.40;;;4.50;;
6031;SDS011;3044;43.232;27.972;2023-03-12T04:13:07;8.13;;;4.40;;
6031;SDS011;3044;43.232;27.972;2023-03-12T04:15:34;6.20;;;4.17;;
6031;SDS011;3044;43.232;27.972;2023-03-12T04:18:01;4.87;;;4.50;;
6031;SDS011;3044;43.232;27.972;2023-03-12T04:20:29;4.23;;;3.50;;
6031;SDS011;3044;43.232;27.972;2023-03-12T04:22:59;6.03;;;4.20;;
6031;SDS011;3044;43.232;27.972;2023-03-12T04:25:26;7.03;;;3.97;;
6031;SDS011;3044;43.232;27.972;2023-03-12T04:27:54;11.80;;;5.60;;
6031;SDS011;3044;43.232;27.972;2023-03-12T04:30:21;16.07;;;4.30;;
6031;SDS011;3044;43.232;27.972;2023-03-12T04:32:48;18.57;;;4.70;;
6031;SDS011;3044;43.232;27.972;2023-03-12T04:35:16;8.30;;;5.17;;
6031;SDS011;3044;43.232;27.972;2023-03-12T04:37:43;12.83;;;4.30;;
6031;SDS011;3044;43.232;27.972;2023-03-12T04:40:11;11.53;;;4.40;;
6031;SDS011;3044;43.232;27.972;2023-03-12T04:42:39;7.50;;;3.90;;
6031;SDS011;3044;43.232;27.972;2023-03-12T04:45:08;8.57;;;4.43;;
6031;SDS011;3044;43.232;27.972;2023-03-12T04:47:36;4.97;;;4.57;;
6031;SDS011;3044;43.232;27.972;2023-03-12T04:50:04;18.67;;;3.87;;
6031;SDS011;3044;43.232;27.972;2023-03-12T04:52:32;5.60;;;4.03;;
6031;SDS011;3044;43.232;27.972;2023-03-12T04:54:59;5.00;;;3.80;;
6031;SDS011;3044;43.232;27.972;2023-03-12T04:57:26;7.00;;;3.83;;
6031;SDS011;3044;43.232;27.972;2023-03-12T04:59:53;8.40;;;4.10;;
6031;SDS011;3044;43.232;27.972;2023-03-12T05:02:22;5.67;;;3.80;;
6031;SDS011;3044;43.232;27.972;2023-03-12T05:04:50;12.77;;;4.13;;
6031;SDS011;3044;43.232;27.972;2023-03-12T05:07:17;8.47;;;4.00;;
6031;SDS011;3044;43.232;27.972;2023-03-12T05:09:44;6.90;;;4.30;;
6031;SDS011;3044;43.232;27.972;2023-03-12T05:12:11;13.80;;;4.00;;
6031;SDS011;3044;43.232;27.972;2023-03-12T05:14:38;7.97;;;4.07;;
6031;SDS011;3044;43.232;27.972;2023-03-12T05:17:05;9.30;;;5.00;;
6031;SDS011;3044;43.232;27.972;2023-03-12T05:19:34;18.13;;;4.23;;
6031;SDS011;3044;43.232;27.972;2023-03-12T05:22:01;9.80;;;4.10;;
6031;SDS011;3044;43.232;27.972;2023-03-12T05:24:28;6.70;;;4.00;;
6031;SDS011;3044;43.232;27.972;2023-03-12T05:26:55;8.10;;;4.03;;
6031;SDS011;3044;43.232;27.972;2023-03-12T05:29:23;6.23;;;4.37;;
6031;SDS011;3044;43.232;27.972;2023-03-12T05:31:50;8.30;;;3.80;;
6031;SDS011;3044;43.232;27.972;2023-03-12T05:34:17;7.60;;;3.77;;
6031;SDS011;3044;43.232;27.972;2023-03-12T05:36:46;15.53;;;4.30;;
6031;SDS011;3044;43.232;27.972;2023-03-12T05:39:13;4.93;;;4.50;;
6031;SDS011;3044;43.232;27.972;2023-03-12T05:41:40;6.00;;;3.30;;
6031;SDS011;3044;43.232;27.972;2023-03-12T05:44:08;14.47;;;4.13;;
6031;SDS011;3044;43.232;27.972;2023-03-12T05:46:37;6.03;;;4.37;;
6031;SDS011;3044;43.232;27.972;2023-03-12T05:49:04;13.13;;;4.37;;
6031;SDS011;3044;43.232;27.972;2023-03-12T05:51:31;21.53;;;4.70;;
6031;SDS011;3044;43.232;27.972;2023-03-12T05:54:00;5.80;;;4.87;;
6031;SDS011;3044;43.232;27.972;2023-03-12T05:56:28;5.47;;;4.07;;
6031;SDS011;3044;43.232;27.972;2023-03-12T05:58:55;10.40;;;4.40;;
6031;SDS011;3044;43.232;27.972;2023-03-12T06:01:23;23.27;;;5.33;;
6031;SDS011;3044;43.232;27.972;2023-03-12T06:03:51;6.67;;;3.70;;
6031;SDS011;3044;43.232;27.972;2023-03-12T06:06:18;10.43;;;5.00;;
6031;SDS011;3044;43.232;27.972;2023-03-12T06:08:46;5.30;;;4.37;;
6031;SDS011;3044;43.232;27.972;2023-03-12T06:11:14;13.60;;;4.83;;
6031;SDS011;3044;43.232;27.972;2023-03-12T06:13:42;3.83;;;3.53;;
6031;SDS011;3044;43.232;27.972;2023-03-12T06:16:10;5.40;;;4.40;;
6031;SDS011;3044;43.232;27.972;2023-03-12T06:18:40;9.57;;;4.10;;
6031;SDS011;3044;43.232;27.972;2023-03-12T06:21:08;12.47;;;4.37;;
6031;SDS011;3044;43.232;27.972;2023-03-12T06:23:36;4.53;;;4.10;;
6031;SDS011;3044;43.232;27.972;2023-03-12T06:26:04;7.00;;;4.07;;
6031;SDS011;3044;43.232;27.972;2023-03-12T06:28:33;6.87;;;3.60;;
6031;SDS011;3044;43.232;27.972;2023-03-12T06:31:00;23.00;;;4.20;;
6031;SDS011;3044;43.232;27.972;2023-03-12T06:33:28;10.17;;;3.60;;
6031;SDS011;3044;43.232;27.972;2023-03-12T06:35:56;7.83;;;4.10;;
6031;SDS011;3044;43.232;27.972;2023-03-12T06:38:25;5.00;;;3.20;;
6031;SDS011;3044;43.232;27.972;2023-03-12T06:40:53;3.70;;;3.40;;
6031;SDS011;3044;43.232;27.972;2023-03-12T06:43:21;15.87;;;3.20;;
6031;SDS011;3044;43.232;27.972;2023-03-12T06:45:51;10.27;;;3.70;;
6031;SDS011;3044;43.232;27.972;2023-03-12T06:48:19;9.27;;;3.63;;
6031;SDS011;3044;43.232;27.972;2023-03-12T06:50:47;17.13;;;3.33;;
6031;SDS011;3044;43.232;27.972;2023-03-12T06:53:14;6.77;;;3.67;;
6031;SDS011;3044;43.232;27.972;2023-03-12T06:55:41;10.63;;;3.43;;
6031;SDS011;3044;43.232;27.972;2023-03-12T06:58:09;9.00;;;3.47;;
6031;SDS011;3044;43.232;27.972;2023-03-12T07:00:37;7.27;;;3.30;;
6031;SDS011;3044;43.232;27.972;2023-03-12T07:03:06;3.87;;;3.37;;
6031;SDS011;3044;43.232;27.972;2023-03-12T07:05:33;4.93;;;3.27;;
6031;SDS011;3044;43.232;27.972;2023-03-12T07:08:00;6.97;;;3.67;;
6031;SDS011;3044;43.232;27.972;2023-03-12T07:10:27;5.17;;;3.67;;
6031;SDS011;3044;43.232;27.972;2023-03-12T07:12:55;6.90;;;3.63;;
6031;SDS011;3044;43.232;27.972;2023-03-12T07:15:23;3.77;;;3.30;;
6031;SDS011;3044;43.232;27.972;2023-03-12T07:17:50;5.23;;;3.00;;
6031;SDS011;3044;43.232;27.972;2023-03-12T07:20:19;3.27;;;2.93;;
6031;SDS011;3044;43.232;27.972;2023-03-12T07:22:46;5.03;;;3.60;;
6031;SDS011;3044;43.232;27.972;2023-03-12T07:25:13;3.60;;;3.30;;
6031;SDS011;3044;43.232;27.972;2023-03-12T07:27:40;3.73;;;3.43;;
6031;SDS011;3044;43.232;27.972;2023-03-12T07:30:08;14.27;;;4.13;;
6031;SDS011;3044;43.232;27.972;2023-03-12T07:32:36;3.97;;;3.60;;
6031;SDS011;3044;43.232;27.972;2023-03-12T07:35:03;3.80;;;2.83;;
6031;SDS011;3044;43.232;27.972;2023-03-12T07:37:32;8.47;;;3.00;;
6031;SDS011;3044;43.232;27.972;2023-03-12T07:40:00;9.80;;;3.67;;
6031;SDS011;3044;43.232;27.972;2023-03-12T07:42:29;15.47;;;4.10;;
6031;SDS011;3044;43.232;27.972;2023-03-12T07:44:56;15.77;;;3.50;;
6031;SDS011;3044;43.232;27.972;2023-03-12T07:47:23;8.00;;;3.40;;
6031;SDS011;3044;43.232;27.972;2023-03-12T07:49:51;3.10;;;2.80;;
6031;SDS011;3044;43.232;27.972;2023-03-12T07:52:18;3.80;;;3.20;;
6031;SDS011;3044;43.232;27.972;2023-03-12T07:54:47;6.80;;;4.07;;
6031;SDS011;3044;43.232;27.972;2023-03-12T07:57:16;6.23;;;3.80;;
6031;SDS011;3044;43.232;27.972;2023-03-12T07:59:44;4.87;;;4.10;;
6031;SDS011;3044;43.232;27.972;2023-03-12T08:02:12;15.17;;;3.50;;
6031;SDS011;3044;43.232;27.972;2023-03-12T08:04:39;4.20;;;2.90;;
6031;SDS011;3044;43.232;27.972;2023-03-12T08:07:06;4.60;;;3.60;;
6031;SDS011;3044;43.232;27.972;2023-03-12T08:09:34;4.27;;;3.77;;
6031;SDS011;3044;43.232;27.972;2023-03-12T08:12:05;3.83;;;3.37;;
6031;SDS011;3044;43.232;27.972;2023-03-12T08:14:32;4.50;;;3.17;;
6031;SDS011;3044;43.232;27.972;2023-03-12T08:17:00;8.53;;;3.60;;
6031;SDS011;3044;43.232;27.972;2023-03-12T08:19:28;13.43;;;4.10;;
6031;SDS011;3044;43.232;27.972;2023-03-12T08:21:55;8.10;;;3.50;;
6031;SDS011;3044;43.232;27.972;2023-03-12T08:24:23;4.67;;;3.20;;
6031;SDS011;3044;43.232;27.972;2023-03-12T08:26:50;8.90;;;3.20;;
6031;SDS011;3044;43.232;27.972;2023-03-12T08:29:19;4.03;;;3.57;;
6031;SDS011;3044;43.232;27.972;2023-03-12T08:31:46;6.40;;;3.47;;
6031;SDS011;3044;43.232;27.972;2023-03-12T08:34:13;15.20;;;3.80;;
6031;SDS011;3044;43.232;27.972;2023-03-12T08:36:40;6.30;;;3.20;;
6031;SDS011;3044;43.232;27.972;2023-03-12T08:39:08;3.33;;;2.87;;
6031;SDS011;3044;43.232;27.972;2023-03-12T08:41:35;3.63;;;3.37;;
6031;SDS011;3044;43.232;27.972;2023-03-12T08:44:02;11.73;;;5.30;;
6031;SDS011;3044;43.232;27.972;2023-03-12T08:46:31;10.17;;;5.60;;
6031;SDS011;3044;43.232;27.972;2023-03-12T08:48:59;6.87;;;3.83;;
6031;SDS011;3044;43.232;27.972;2023-03-12T08:51:26;3.53;;;3.23;;
6031;SDS011;3044;43.232;27.972;2023-03-12T08:53:53;6.80;;;3.30;;
6031;SDS011;3044;43.232;27.972;2023-03-12T08:56:20;5.30;;;4.80;;
6031;SDS011;3044;43.232;27.972;2023-03-12T08:58:47;6.50;;;4.07;;
6031;SDS011;3044;43.232;27.972;2023-03-12T09:01:14;12.50;;;5.00;;
6031;SDS011;3044;43.232;27.972;2023-03-12T09:03:43;25.93;;;9.60;;
6031;SDS011;3044;43.232;27.972;2023-03-12T09:06:12;21.80;;;17.87;;
6031;SDS011;3044;43.232;27.972;2023-03-12T09:08:41;29.93;;;21.93;;
6031;SDS011;3044;43.232;27.972;2023-03-12T09:11:09;22.80;;;10.83;;
6031;SDS011;3044;43.232;27.972;2023-03-12T09:13:37;12.87;;;7.63;;
6031;SDS011;3044;43.232;27.972;2023-03-12T09:16:04;8.00;;;3.80;;
6031;SDS011;3044;43.232;27.972;2023-03-12T09:18:33;4.73;;;4.33;;
6031;SDS011;3044;43.232;27.972;2023-03-12T09:21:02;15.80;;;12.87;;
6031;SDS011;3044;43.232;27.972;2023-03-12T09:23:31;9.33;;;4.60;;
6031;SDS011;3044;43.232;27.972;2023-03-12T09:25:58;3.83;;;3.53;;
6031;SDS011;3044;43.232;27.972;2023-03-12T09:28:25;5.87;;;4.90;;
6031;SDS011;3044;43.232;27.972;2023-03-12T09:30:52;16.97;;;7.87;;
6031;SDS011;3044;43.232;27.972;2023-03-12T09:33:19;5.10;;;4.70;;
6031;SDS011;3044;43.232;27.972;2023-03-12T09:35:54;7.47;;;4.20;;
6031;SDS011;3044;43.232;27.972;2023-03-12T09:38:23;6.90;;;5.10;;
6031;SDS011;3044;43.232;27.972;2023-03-12T09:40:51;10.60;;;7.23;;
6031;SDS011;3044;43.232;27.972;2023-03-12T09:43:21;9.80;;;4.07;;
6031;SDS011;3044;43.232;27.972;2023-03-12T09:45:54;5.53;;;3.23;;
6031;SDS011;3044;43.232;27.972;2023-03-12T09:48:24;5.78;;;5.13;;
6031;SDS011;3044;43.232;27.972;2023-03-12T09:50:57;4.40;;;3.40;;
6031;SDS011;3044;43.232;27.972;2023-03-12T09:53:30;13.93;;;3.57;;
6031;SDS011;3044;43.232;27.972;2023-03-12T09:56:08;8.93;;;5.27;;
6031;SDS011;3044;43.232;27.972;2023-03-12T09:58:39;8.13;;;7.37;;
6031;SDS011;3044;43.232;27.972;2023-03-12T10:01:11;5.60;;;5.00;;
6031;SDS011;3044;43.232;27.972;2023-03-12T10:03:55;4.77;;;4.23;;
6031;SDS011;3044;43.232;27.972;2023-03-12T10:06:31;14.23;;;4.23;;
6031;SDS011;3044;43.232;27.972;2023-03-12T10:09:09;13.67;;;10.00;;
6031;SDS011;3044;43.232;27.972;2023-03-12T10:11:48;7.73;;;4.90;;
6031;SDS011;3044;43.232;27.972;2023-03-12T10:14:28;13.27;;;9.77;;
6031;SDS011;3044;43.232;27.972;2023-03-12T10:17:09;12.50;;;8.10;;
6031;SDS011;3044;43.232;27.972;2023-03-12T10:20:03;31.37;;;27.53;;
6031;SDS011;3044;43.232;27.972;2023-03-12T10:22:48;14.63;;;6.90;;
6031;SDS011;3044;43.232;27.972;2023-03-12T10:25:23;6.33;;;5.80;;
6031;SDS011;3044;43.232;27.972;2023-03-12T10:27:58;15.60;;;8.90;;
6031;SDS011;3044;43.232;27.972;2023-03-12T10:30:28;29.27;;;23.73;;
6031;SDS011;3044;43.232;27.972;2023-03-12T10:32:57;16.40;;;8.47;;
6031;SDS011;3044;43.232;27.972;2023-03-12T10:35:28;7.27;;;4.10;;
6031;SDS011;3044;43.232;27.972;2023-03-12T10:37:56;6.60;;;6.00;;
6031;SDS011;3044;43.232;27.972;2023-03-12T10:40:28;5.97;;;3.70;;
6031;SDS011;3044;43.232;27.972;2023-03-12T10:42:58;5.83;;;5.33;;
6031;SDS011;3044;43.232;27.972;2023-03-12T10:45:27;10.23;;;5.57;;
6031;SDS011;3044;43.232;27.972;2023-03-12T10:48:01;33.27;;;23.77;;
6031;SDS011;3044;43.232;27.972;2023-03-12T10:50:32;15.03;;;10.70;;
6031;SDS011;3044;43.232;27.972;2023-03-12T10:55:58;9.20;;;7.73;;
6031;SDS011;3044;43.232;27.972;2023-03-12T10:58:32;18.10;;;14.07;;
6031;SDS011;3044;43.232;27.972;2023-03-12T11:01:02;6.60;;;5.20;;
6031;SDS011;3044;43.232;27.972;2023-03-12T11:03:30;11.60;;;10.37;;
6031;SDS011;3044;43.232;27.972;2023-03-12T11:05:58;13.90;;;5.63;;
6031;SDS011;3044;43.232;27.972;2023-03-12T11:08:27;9.37;;;7.00;;
6031;SDS011;3044;43.232;27.972;2023-03-12T11:10:56;17.80;;;15.00;;
6031;SDS011;3044;43.232;27.972;2023-03-12T11:13:30;11.13;;;8.33;;
6031;SDS011;3044;43.232;27.972;2023-03-12T11:16:00;4.47;;;2.80;;
6031;SDS011;3044;43.232;27.972;2023-03-12T11:18:29;3.80;;;3.13;;
6031;SDS011;3044;43.232;27.972;2023-03-12T11:21:11;5.53;;;3.80;;
6031;SDS011;3044;43.232;27.972;2023-03-12T11:23:44;11.37;;;3.50;;
6031;SDS011;3044;43.232;27.972;2023-03-12T11:26:33;79.30;;;41.30;;
6031;SDS011;3044;43.232;27.972;2023-03-12T11:29:06;146.47;;;67.60;;
6031;SDS011;3044;43.232;27.972;2023-03-12T11:31:43;9.57;;;6.93;;
6031;SDS011;3044;43.232;27.972;2023-03-12T11:34:18;335.57;;;142.07;;
6031;SDS011;3044;43.232;27.972;2023-03-12T11:36:50;46.17;;;20.90;;
6031;SDS011;3044;43.232;27.972;2023-03-12T11:39:25;29.10;;;15.47;;
6031;SDS011;3044;43.232;27.972;2023-03-12T11:42:10;158.23;;;60.70;;
6031;SDS011;3044;43.232;27.972;2023-03-12T11:44:50;270.90;;;85.10;;
6031;SDS011;3044;43.232;27.972;2023-03-12T11:47:31;340.87;;;105.17;;
6031;SDS011;3044;43.232;27.972;2023-03-12T11:50:17;220.87;;;62.57;;
6031;SDS011;3044;43.232;27.972;2023-03-12T11:52:56;145.17;;;49.97;;
6031;SDS011;3044;43.232;27.972;2023-03-12T11:55:39;154.60;;;48.97;;
6031;SDS011;3044;43.232;27.972;2023-03-12T11:58:19;51.30;;;19.53;;
6031;SDS011;3044;43.232;27.972;2023-03-12T12:00:58;68.93;;;34.30;;
6031;SDS011;3044;43.232;27.972;2023-03-12T12:03:42;246.33;;;110.43;;
6031;SDS011;3044;43.232;27.972;2023-03-12T12:06:26;30.70;;;13.90;;
6031;SDS011;3044;43.232;27.972;2023-03-12T12:09:05;83.80;;;36.80;;
6031;SDS011;3044;43.232;27.972;2023-03-12T12:11:45;8.37;;;4.77;;
6031;SDS011;3044;43.232;27.972;2023-03-12T12:14:25;4.47;;;4.03;;
6031;SDS011;3044;43.232;27.972;2023-03-12T12:17:09;30.07;;;16.10;;
6031;SDS011;3044;43.232;27.972;2023-03-12T12:19:50;25.93;;;12.93;;
6031;SDS011;3044;43.232;27.972;2023-03-12T12:22:32;17.43;;;5.43;;
6031;SDS011;3044;43.232;27.972;2023-03-12T12:28:10;5.93;;;4.50;;
6031;SDS011;3044;43.232;27.972;2023-03-12T12:31:08;9.80;;;4.43;;
6031;SDS011;3044;43.232;27.972;2023-03-12T12:33:50;6.80;;;4.87;;
6031;SDS011;3044;43.232;27.972;2023-03-12T12:36:29;5.07;;;3.60;;
6031;SDS011;3044;43.232;27.972;2023-03-12T12:39:00;8.23;;;4.40;;
6031;SDS011;3044;43.232;27.972;2023-03-12T12:41:34;4.73;;;3.33;;
6031;SDS011;3044;43.232;27.972;2023-03-12T12:44:05;4.90;;;3.10;;
6031;SDS011;3044;43.232;27.972;2023-03-12T12:46:38;2.93;;;2.60;;
6031;SDS011;3044;43.232;27.972;2023-03-12T12:49:10;4.97;;;3.13;;
6031;SDS011;3044;43.232;27.972;2023-03-12T12:51:40;5.00;;;3.07;;
6031;SDS011;3044;43.232;27.972;2023-03-12T12:54:13;3.90;;;2.57;;
6031;SDS011;3044;43.232;27.972;2023-03-12T12:56:49;4.17;;;2.80;;
6031;SDS011;3044;43.232;27.972;2023-03-12T12:59:27;4.90;;;2.97;;
6031;SDS011;3044;43.232;27.972;2023-03-12T13:02:00;10.70;;;3.10;;
6031;SDS011;3044;43.232;27.972;2023-03-12T13:04:31;3.00;;;2.50;;
6031;SDS011;3044;43.232;27.972;2023-03-12T13:07:03;9.67;;;3.50;;
6031;SDS011;3044;43.232;27.972;2023-03-12T13:09:58;7.57;;;2.90;;
6031;SDS011;3044;43.232;27.972;2023-03-12T13:12:32;12.13;;;3.40;;
6031;SDS011;3044;43.232;27.972;2023-03-12T13:18:06;5.57;;;3.37;;
6031;SDS011;3044;43.232;27.972;2023-03-12T13:23:33;4.37;;;2.70;;
6031;SDS011;3044;43.232;27.972;2023-03-12T13:26:14;8.43;;;2.87;;
6031;SDS011;3044;43.232;27.972;2023-03-12T13:29:11;17.83;;;8.40;;
6031;SDS011;3044;43.232;27.972;2023-03-12T13:31:44;3.37;;;2.80;;
6031;SDS011;3044;43.232;27.972;2023-03-12T13:37:16;9.10;;;4.07;;
6031;SDS011;3044;43.232;27.972;2023-03-12T13:40:01;19.53;;;4.50;;
6031;SDS011;3044;43.232;27.972;2023-03-12T13:42:54;17.93;;;10.43;;
6031;SDS011;3044;43.232;27.972;2023-03-12T13:45:28;12.60;;;6.30;;
6031;SDS011;3044;43.232;27.972;2023-03-12T13:47:57;16.90;;;4.57;;
6031;SDS011;3044;43.232;27.972;2023-03-12T13:50:26;7.50;;;5.60;;
6031;SDS011;3044;43.232;27.972;2023-03-12T13:53:00;5.03;;;3.70;;
6031;SDS011;3044;43.232;27.972;2023-03-12T13:55:30;7.30;;;5.10;;
6031;SDS011;3044;43.232;27.972;2023-03-12T13:58:00;7.20;;;4.63;;
6031;SDS011;3044;43.232;27.972;2023-03-12T14:00:37;4.73;;;2.90;;
6031;SDS011;3044;43.232;27.972;2023-03-12T14:03:10;5.83;;;3.07;;
6031;SDS011;3044;43.232;27.972;2023-03-12T14:05:47;7.80;;;5.40;;
6031;SDS011;3044;43.232;27.972;2023-03-12T14:08:29;3.00;;;2.80;;
6031;SDS011;3044;43.232;27.972;2023-03-12T14:11:15;7.17;;;4.70;;
6031;SDS011;3044;43.232;27.972;2023-03-12T14:17:11;3.60;;;3.30;;
6031;SDS011;3044;43.232;27.972;2023-03-12T14:19:50;7.53;;;4.40;;
6031;SDS011;3044;43.232;27.972;2023-03-12T14:22:22;5.20;;;2.80;;
6031;SDS011;3044;43.232;27.972;2023-03-12T14:24:58;7.57;;;3.47;;
6031;SDS011;3044;43.232;27.972;2023-03-12T14:27:31;6.00;;;3.27;;
6031;SDS011;3044;43.232;27.972;2023-03-12T14:30:03;4.20;;;3.00;;
6031;SDS011;3044;43.232;27.972;2023-03-12T14:32:38;3.30;;;3.00;;
6031;SDS011;3044;43.232;27.972;2023-03-12T14:35:15;6.10;;;3.23;;
6031;SDS011;3044;43.232;27.972;2023-03-12T14:37:50;5.13;;;3.03;;
6031;SDS011;3044;43.232;27.972;2023-03-12T14:40:25;5.50;;;2.60;;
6031;SDS011;3044;43.232;27.972;2023-03-12T14:43:02;3.60;;;2.60;;
6031;SDS011;3044;43.232;27.972;2023-03-12T14:45:44;3.30;;;2.63;;
6031;SDS011;3044;43.232;27.972;2023-03-12T14:48:12;2.93;;;2.70;;
6031;SDS011;3044;43.232;27.972;2023-03-12T14:50:39;5.67;;;3.43;;
6031;SDS011;3044;43.232;27.972;2023-03-12T14:53:10;5.60;;;3.37;;
6031;SDS011;3044;43.232;27.972;2023-03-12T14:55:40;5.00;;;3.27;;
6031;SDS011;3044;43.232;27.972;2023-03-12T14:58:13;5.33;;;3.67;;
6031;SDS011;3044;43.232;27.972;2023-03-12T15:00:43;3.93;;;3.53;;
6031;SDS011;3044;43.232;27.972;2023-03-12T15:03:21;3.03;;;2.80;;
6031;SDS011;3044;43.232;27.972;2023-03-12T15:05:50;4.70;;;4.20;;
6031;SDS011;3044;43.232;27.972;2023-03-12T15:08:18;5.50;;;4.63;;
6031;SDS011;3044;43.232;27.972;2023-03-12T15:10:48;5.63;;;3.90;;
6031;SDS011;3044;43.232;27.972;2023-03-12T15:13:17;9.30;;;5.00;;
6031;SDS011;3044;43.232;27.972;2023-03-12T15:15:47;7.50;;;4.97;;
6031;SDS011;3044;43.232;27.972;2023-03-12T15:18:18;6.00;;;4.10;;
6031;SDS011;3044;43.232;27.972;2023-03-12T15:20:48;4.87;;;3.83;;
6031;SDS011;3044;43.232;27.972;2023-03-12T15:23:18;4.83;;;4.40;;
6031;SDS011;3044;43.232;27.972;2023-03-12T15:25:48;4.07;;;3.60;;
6031;SDS011;3044;43.232;27.972;2023-03-12T15:28:38;4.53;;;3.60;;
6031;SDS011;3044;43.232;27.972;2023-03-12T15:31:07;7.30;;;3.53;;
6031;SDS011;3044;43.232;27.972;2023-03-12T15:33:37;4.47;;;3.63;;